KTPH/TPH METAR and TAF weather

Enter ICAO airport designator
Station Type Date Time Source
KTPH METAR 2021/03/04 23:56 UTC NOAA

KTPH 042356Z AUTO VRB04KT 10SM CLR 14/M14 A3023 RMK AO2 SLP227 T01441144 10150 20067 53004


Station Type Date Time Source
KTPH Decoded METAR 2021/03/04 23:56 UTC NOAA

TONOPAH AIRPORT, NV, United States (KTPH) 38-02N 117-05W 1652M
Mar 04, 2021 - 06:56 PM EST / 2021.03.04 2356 UTC
Wind: Variable at 5 MPH (4 KT):0
Visibility: 10 mile(s):0
Sky conditions: clear
Temperature: 57.9 F (14.4 C)
Dew Point: 6.1 F (-14.4 C)
Relative Humidity: 12%
Pressure (altimeter): 30.23 in. Hg (1023 hPa)
Pressure tendency: 0.01 inches (0.4 hPa) higher than three hours ago
ob: KTPH 042356Z AUTO VRB04KT 10SM CLR 14/M14 A3023 RMK AO2 SLP227 T01441144 10150 20067 53004
cycle: 0

Station Type Date Time Source
KTPH TAF 2021/03/04 18:42 UTC NOAA

TAF KTPH 041741Z 0418/0518 VRB05KT P6SM SCT100
FM042000 28009KT P6SM SKC
FM042200 VRB05KT P6SM SKC

Example: see airport list